Time;durP1;ratioP1;P1;durP2;ratioP2;P2;SDS_P1;SDS_P2;PMS_P1;PMS_P2;Temp;Humidity;BMP_temperature;BMP_pressure;BME280_temperature;BME280_humidity;BME280_pressure;Samples;Min_cycle;Max_cycle;Signal;HPM_P1;HPM_P2
2020/12/27 00:02:46;;;;;;;2.97;2.20;;;;;;;5.30;71.48;99552.31;8715056;33;20188;-70
2020/12/27 00:07:48;;;;;;;3.70;2.40;;;;;;;5.22;71.23;99553.72;8716068;33;20414;-71
2020/12/27 00:12:52;;;;;;;3.78;2.15;;;;;;;5.04;71.71;99514.09;8715208;33;20155;-71
2020/12/27 00:17:55;;;;;;;2.70;2.45;;;;;;;5.07;71.42;99528.94;8720680;33;20710;-70
2020/12/27 00:22:57;;;;;;;3.70;2.10;;;;;;;4.88;71.53;99507.97;8720164;33;20738;-71
2020/12/27 00:27:59;;;;;;;2.40;1.70;;;;;;;4.92;71.17;99498.94;8722521;33;21361;-70
2020/12/27 00:33:03;;;;;;;1.67;1.57;;;;;;;4.92;71.59;99474.28;8720560;33;20466;-70
2020/12/27 00:38:05;;;;;;;1.90;1.63;;;;;;;4.85;71.38;99460.53;8691014;33;20290;-70
2020/12/27 00:43:07;;;;;;;4.13;2.20;;;;;;;4.94;71.19;99438.84;8719566;33;20217;-71
2020/12/27 00:48:10;;;;;;;2.67;2.03;;;;;;;4.83;71.04;99450.03;8719692;33;20277;-71
2020/12/27 00:53:13;;;;;;;2.08;1.95;;;;;;;4.96;70.96;99417.53;8717950;33;20530;-70
2020/12/27 00:58:16;;;;;;;3.95;1.52;;;;;;;4.78;71.23;99407.09;8719197;33;20818;-71
2020/12/27 01:03:22;;;;;;;2.10;1.90;;;;;;;4.83;70.99;99405.06;8695092;33;20244;-70
2020/12/27 01:08:50;;;;;;;1.87;1.77;;;;;;;5.01;70.61;99379.28;8694420;33;20222;-71
2020/12/27 01:13:53;;;;;;;3.28;2.10;;;;;;;4.90;70.60;99387.84;8717747;33;20177;-69
2020/12/27 01:18:56;;;;;;;1.77;1.63;;;;;;;4.93;70.55;99351.56;8694470;33;21786;-70
2020/12/27 01:24:07;;;;;;;3.63;1.47;;;;;;;4.69;70.94;99346.81;8706363;33;20677;-70
2020/12/27 01:29:14;;;;;;;1.77;1.67;;;;;;;4.83;70.52;99336.25;8693497;33;20188;-70
2020/12/27 01:34:27;;;;;;;1.73;1.63;;;;;;;4.86;70.55;99319.34;8717512;33;20337;-70
2020/12/27 01:39:30;;;;;;;2.33;2.10;;;;;;;4.94;70.13;99317.06;8693844;33;20183;-70
2020/12/27 01:44:33;;;;;;;1.67;1.57;;;;;;;4.85;70.14;99310.53;8694259;33;20187;-70
2020/12/27 01:49:38;;;;;;;2.00;1.85;;;;;;;4.74;70.45;99299.72;8716681;33;20275;-70
2020/12/27 01:54:40;;;;;;;1.70;1.60;;;;;;;4.94;69.49;99273.84;8693201;33;20290;-70
2020/12/27 01:59:47;;;;;;;1.65;1.55;;;;;;;4.98;69.47;99257.69;8717746;33;20187;-71
2020/12/27 02:05:12;;;;;;;1.90;1.50;;;;;;;4.77;69.44;99240.47;8718375;33;20426;-70
2020/12/27 02:10:18;;;;;;;2.77;1.63;;;;;;;4.85;69.13;99209.97;8717767;33;20152;-71
2020/12/27 02:15:21;;;;;;;2.60;1.55;;;;;;;4.79;69.38;99201.56;8693311;33;20624;-70
2020/12/27 02:20:43;;;;;;;1.88;1.52;;;;;;;4.92;69.19;99193.72;8716119;33;20192;-71
2020/12/27 02:25:52;;;;;;;13.35;1.88;;;;;;;4.89;69.19;99163.84;8721757;33;20292;-71
2020/12/27 02:31:21;;;;;;;1.90;1.80;;;;;;;4.79;69.51;99162.72;8708835;33;20192;-71
2020/12/27 02:36:33;;;;;;;1.50;1.40;;;;;;;4.75;69.44;99129.47;8693756;33;20161;-70
2020/12/27 02:41:40;;;;;;;2.00;1.50;;;;;;;4.85;69.13;99106.78;8739517;33;20451;-70
2020/12/27 02:46:57;;;;;;;1.17;1.13;;;;;;;4.74;69.12;99103.09;8715795;33;20206;-70
2020/12/27 02:52:18;;;;;;;2.13;1.40;;;;;;;4.79;69.14;99099.19;8717106;33;20457;-71
2020/12/27 02:57:21;;;;;;;1.50;1.40;;;;;;;4.87;68.92;99051.94;8739444;33;20747;-70
2020/12/27 03:02:24;;;;;;;1.40;1.30;;;;;;;4.69;69.18;99055.78;8715501;33;21014;-70
2020/12/27 03:07:46;;;;;;;4.60;1.73;;;;;;;4.79;69.33;99035.69;8716557;33;20274;-70
2020/12/27 03:12:57;;;;;;;1.47;1.33;;;;;;;4.94;68.93;99019.75;8739081;33;20191;-70
2020/12/27 03:18:00;;;;;;;1.13;1.13;;;;;;;4.79;69.10;99024.28;8691882;33;20271;-70
2020/12/27 03:23:22;;;;;;;1.40;1.30;;;;;;;4.82;68.83;98993.16;8716424;33;20277;-70
2020/12/27 03:28:30;;;;;;;2.00;1.47;;;;;;;4.84;68.42;98980.69;8714827;33;20655;-71
2020/12/27 03:33:38;;;;;;;2.43;1.57;;;;;;;4.92;68.77;98963.47;8738398;33;20693;-70
2020/12/27 03:38:45;;;;;;;2.17;1.20;;;;;;;4.95;68.52;98972.03;8691639;33;20257;-70
2020/12/27 03:44:12;;;;;;;1.33;1.23;;;;;;;5.01;68.13;98955.75;8709039;33;20503;-69
2020/12/27 03:49:43;;;;;;;1.53;1.43;;;;;;;5.04;67.59;98936.16;8617489;33;20183;-70
2020/12/27 03:54:51;;;;;;;2.10;1.50;;;;;;;5.00;68.09;98877.31;8696585;33;20716;-70
2020/12/27 04:00:17;;;;;;;2.93;1.60;;;;;;;5.05;67.94;98843.44;8720335;33;20140;-71
2020/12/27 04:05:26;;;;;;;2.28;1.80;;;;;;;5.21;67.47;98829.13;8695005;33;20673;-70
2020/12/27 04:10:29;;;;;;;2.53;2.33;;;;;;;5.09;67.30;98836.13;8695909;33;20941;-71
2020/12/27 04:15:34;;;;;;;1.67;1.30;;;;;;;5.16;67.03;98807.44;8719432;33;20183;-71
2020/12/27 04:20:47;;;;;;;1.37;1.30;;;;;;;5.20;67.12;98807.09;8742415;33;20213;-69
2020/12/27 04:25:50;;;;;;;1.30;1.20;;;;;;;4.98;67.35;98778.63;8696307;33;20638;-70
2020/12/27 04:30:53;;;;;;;1.60;1.50;;;;;;;5.41;66.49;98790.66;8719851;33;20152;-70
2020/12/27 04:36:06;;;;;;;1.57;1.47;;;;;;;5.43;66.54;98767.53;8695327;33;20187;-69
2020/12/27 04:41:09;;;;;;;2.33;1.60;;;;;;;5.21;66.60;98750.56;8719880;33;22048;-70
2020/12/27 04:46:15;;;;;;;1.95;1.33;;;;;;;5.30;66.68;98735.81;8695219;33;20188;-70
2020/12/27 04:51:27;;;;;;;2.20;1.57;;;;;;;5.48;66.34;98728.34;8741855;33;20443;-70
2020/12/27 04:57:02;;;;;;;1.98;1.75;;;;;;;5.39;66.58;98721.06;8706502;33;20770;-70
2020/12/27 05:02:05;;;;;;;1.30;1.20;;;;;;;5.25;66.88;98716.75;8741161;33;20444;-71
2020/12/27 05:07:20;;;;;;;3.28;1.50;;;;;;;5.51;66.16;98688.38;8695271;33;20217;-71
2020/12/27 05:12:45;;;;;;;1.23;1.10;;;;;;;5.56;66.35;98671.19;8666548;33;20237;-71
2020/12/27 05:17:50;;;;;;;1.13;1.05;;;;;;;5.52;66.21;98634.47;8718300;33;20234;-71
2020/12/27 05:22:59;;;;;;;1.15;1.15;;;;;;;5.73;65.78;98626.72;8717619;33;21020;-71
2020/12/27 05:28:18;;;;;;;1.30;1.20;;;;;;;5.55;66.08;98613.03;8694286;33;20270;-71
2020/12/27 05:33:54;;;;;;;1.88;1.55;;;;;;;5.81;65.44;98608.44;8671604;33;20248;-71
2020/12/27 05:39:16;;;;;;;1.08;1.08;;;;;;;5.88;65.40;98571.72;8718062;33;20251;-71
2020/12/27 05:44:44;;;;;;;0.98;0.98;;;;;;;6.01;64.95;98572.50;8712767;33;20238;-71
2020/12/27 05:49:49;;;;;;;1.88;1.38;;;;;;;5.88;65.10;98563.78;8693665;33;20435;-70
2020/12/27 05:54:57;;;;;;;0.88;0.82;;;;;;;6.14;64.82;98527.31;8717953;33;20187;-71
2020/12/27 06:00:05;;;;;;;7.35;1.38;;;;;;;5.94;65.24;98513.81;8740003;33;20195;-71
2020/12/27 06:06:14;;;;;;;2.75;1.20;;;;;;;6.10;65.08;98494.91;8693657;33;20187;-71
2020/12/27 06:11:24;;;;;;;0.90;0.90;;;;;;;6.15;64.96;98482.13;8693359;33;20444;-71
2020/12/27 06:16:55;;;;;;;0.98;0.98;;;;;;;6.23;65.04;98478.88;8739256;33;20145;-71
2020/12/27 06:22:32;;;;;;;2.80;0.90;;;;;;;6.26;64.92;98445.97;8718572;33;20187;-70
2020/12/27 06:28:03;;;;;;;0.70;0.70;;;;;;;6.34;64.96;98432.94;8692528;33;20870;-71
2020/12/27 06:33:26;;;;;;;0.85;0.85;;;;;;;6.31;64.89;98425.22;8692539;33;20901;-70
2020/12/27 06:38:34;;;;;;;1.30;1.20;;;;;;;6.40;65.03;98403.28;8716047;33;20282;-71
2020/12/27 06:43:46;;;;;;;0.82;0.82;;;;;;;6.31;64.88;98375.69;8739474;33;20265;-71
2020/12/27 06:49:13;;;;;;;2.97;0.93;;;;;;;6.58;64.24;98372.59;8692150;33;20179;-71
2020/12/27 06:54:46;;;;;;;1.20;1.13;;;;;;;6.57;64.70;98348.84;8717190;33;20183;-71
2020/12/27 07:00:19;;;;;;;0.82;0.80;;;;;;;6.42;64.56;98338.53;8692367;33;20246;-71
2020/12/27 07:05:29;;;;;;;0.77;0.77;;;;;;;6.34;64.67;98332.16;8716015;33;20185;-71
2020/12/27 07:10:34;;;;;;;0.90;0.90;;;;;;;6.26;64.90;98324.00;8717000;33;20188;-71
2020/12/27 07:15:47;;;;;;;1.50;1.10;;;;;;;6.17;65.29;98299.94;8716316;33;20532;-71
2020/12/27 07:20:53;;;;;;;1.42;0.90;;;;;;;6.24;65.24;98309.03;8716277;33;20226;-71
2020/12/27 07:25:59;;;;;;;1.10;1.10;;;;;;;6.09;65.59;98285.59;8716835;33;20473;-71
2020/12/27 07:31:03;;;;;;;1.15;1.05;;;;;;;6.21;65.39;98261.56;8716475;33;20738;-70
2020/12/27 07:36:07;;;;;;;1.65;1.13;;;;;;;6.22;65.58;98242.03;8716148;33;20183;-70
2020/12/27 07:41:11;;;;;;;1.58;1.20;;;;;;;6.19;65.69;98223.72;8715768;33;20159;-71
2020/12/27 07:46:15;;;;;;;0.82;0.82;;;;;;;6.06;65.60;98215.13;8715820;33;20175;-71
2020/12/27 07:51:20;;;;;;;1.15;1.05;;;;;;;6.24;65.44;98208.28;8714541;33;20465;-71
2020/12/27 07:56:25;;;;;;;1.40;1.30;;;;;;;6.07;65.73;98178.88;8714498;33;20156;-71
2020/12/27 08:01:29;;;;;;;1.00;1.00;;;;;;;6.15;65.69;98149.91;8714243;33;20176;-71
2020/12/27 08:06:34;;;;;;;1.23;1.13;;;;;;;6.22;65.08;98190.81;8715530;33;20176;-71
2020/12/27 08:11:40;;;;;;;1.40;1.30;;;;;;;6.37;65.11;98149.75;8715704;33;20156;-70
2020/12/27 08:16:46;;;;;;;1.15;1.08;;;;;;;6.29;65.15;98130.16;8715527;33;20256;-71
2020/12/27 08:21:48;;;;;;;1.05;1.05;;;;;;;6.28;65.18;98161.16;8715661;33;20171;-70
2020/12/27 08:26:58;;;;;;;1.33;1.23;;;;;;;6.41;64.69;98107.88;8715134;33;21577;-69
2020/12/27 08:32:05;;;;;;;0.93;0.93;;;;;;;6.50;64.70;98088.56;8714699;33;20641;-70
2020/12/27 08:37:09;;;;;;;1.08;1.08;;;;;;;6.60;64.46;98083.28;8716970;33;20183;-70
2020/12/27 08:42:29;;;;;;;1.15;0.90;;;;;;;6.50;64.35;98075.28;8721501;33;20183;-70
2020/12/27 08:47:44;;;;;;;2.92;1.20;;;;;;;6.37;65.00;98077.31;8720458;33;20176;-70
2020/12/27 08:52:49;;;;;;;2.00;1.35;;;;;;;6.45;64.53;98037.72;8720335;33;20440;-70
2020/12/27 08:57:53;;;;;;;1.75;1.65;;;;;;;6.58;64.29;98026.84;8719951;33;20257;-70
2020/12/27 09:02:57;;;;;;;1.17;1.10;;;;;;;6.21;65.10;98086.59;8719022;33;20279;-70
2020/12/27 09:08:00;;;;;;;2.45;1.90;;;;;;;6.13;65.44;97972.41;8719568;33;20145;-69
2020/12/27 09:13:04;;;;;;;1.23;1.13;;;;;;;6.38;64.97;97983.53;8719128;33;20174;-71
2020/12/27 09:18:09;;;;;;;1.40;1.30;;;;;;;6.21;65.32;97991.13;8719617;33;20202;-71
2020/12/27 09:23:13;;;;;;;2.55;1.95;;;;;;;6.30;64.98;97989.47;8717409;33;21617;-71
2020/12/27 09:28:18;;;;;;;1.25;1.25;;;;;;;6.26;64.89;98004.00;8715063;33;20226;-71
2020/12/27 09:33:21;;;;;;;1.90;1.25;;;;;;;6.40;65.04;97978.94;8713453;33;20675;-71
2020/12/27 09:38:25;;;;;;;1.40;1.30;;;;;;;6.48;64.57;97957.88;8718203;33;20152;-71
2020/12/27 09:43:28;;;;;;;1.33;1.23;;;;;;;6.55;64.18;97950.19;8716182;33;20141;-70
2020/12/27 09:48:31;;;;;;;1.83;1.70;;;;;;;6.52;64.49;97945.16;8717471;33;20184;-71
2020/12/27 09:53:33;;;;;;;1.27;1.13;;;;;;;6.40;64.37;97925.88;8716928;33;20831;-71
2020/12/27 09:58:37;;;;;;;2.63;1.73;;;;;;;6.34;64.97;97919.31;8716568;33;20151;-71
2020/12/27 10:03:39;;;;;;;1.40;1.30;;;;;;;6.38;65.21;97865.00;8716619;33;20259;-71
2020/12/27 10:08:41;;;;;;;2.90;1.33;;;;;;;6.38;65.15;97874.78;8716512;33;20708;-71
2020/12/27 10:13:44;;;;;;;2.15;1.70;;;;;;;6.41;65.25;97859.44;8691652;33;20461;-71
2020/12/27 10:18:47;;;;;;;1.40;1.30;;;;;;;6.43;65.41;97864.63;8716270;33;21380;-71
2020/12/27 10:23:49;;;;;;;2.30;1.40;;;;;;;6.16;66.64;97857.31;8715953;33;20615;-71
2020/12/27 10:28:53;;;;;;;1.40;1.30;;;;;;;6.31;65.46;97832.09;8715236;33;21944;-71
2020/12/27 10:33:57;;;;;;;1.27;1.17;;;;;;;6.08;66.77;97822.69;8716182;33;20215;-72
2020/12/27 10:38:59;;;;;;;1.70;1.60;;;;;;;6.10;65.99;97807.50;8715555;33;20132;-72
2020/12/27 10:44:02;;;;;;;1.90;1.80;;;;;;;5.98;66.16;97788.25;8715503;33;20678;-71
2020/12/27 10:49:05;;;;;;;5.75;2.13;;;;;;;6.00;66.03;97759.78;8714704;33;20191;-71
2020/12/27 10:54:11;;;;;;;3.67;2.05;;;;;;;5.87;66.70;97767.97;8715350;33;20147;-71
2020/12/27 10:59:15;;;;;;;2.13;1.92;;;;;;;5.59;67.07;97721.88;8712654;33;20763;-71
2020/12/27 11:04:17;;;;;;;3.97;2.58;;;;;;;5.58;67.55;97701.69;8714461;33;20190;-71
2020/12/27 11:09:19;;;;;;;5.53;2.45;;;;;;;5.73;66.76;97697.66;8714486;33;20240;-71
2020/12/27 11:14:22;;;;;;;3.10;2.25;;;;;;;5.55;66.84;97700.13;8716897;33;20187;-71
2020/12/27 11:19:25;;;;;;;3.50;2.20;;;;;;;5.30;68.05;97685.59;8714727;33;20460;-71
2020/12/27 11:24:27;;;;;;;2.97;1.97;;;;;;;5.12;69.21;97666.03;8714980;33;20198;-71
2020/12/27 11:29:30;;;;;;;4.30;2.50;;;;;;;4.74;70.34;97656.13;8714826;33;20173;-71
2020/12/27 11:34:33;;;;;;;1.93;1.70;;;;;;;4.58;72.00;97611.66;8715387;33;20157;-71
2020/12/27 11:39:35;;;;;;;3.53;2.03;;;;;;;4.46;72.89;97595.91;8714364;33;20180;-71
2020/12/27 11:44:38;;;;;;;2.97;2.30;;;;;;;4.52;72.54;97585.75;8690998;33;20282;-71
2020/12/27 11:49:41;;;;;;;1.97;1.77;;;;;;;4.32;73.53;97567.19;8715472;33;20144;-71
2020/12/27 11:54:43;;;;;;;3.23;2.70;;;;;;;4.22;73.95;97575.06;8714471;33;20233;-71
2020/12/27 11:59:47;;;;;;;2.30;1.97;;;;;;;4.60;74.67;97555.03;8712378;33;20360;-71
2020/12/27 12:04:49;;;;;;;2.53;2.30;;;;;;;4.04;74.88;97533.53;8714327;33;20621;-71
2020/12/27 12:09:51;;;;;;;5.57;2.67;;;;;;;3.98;75.75;97545.47;8713895;33;20238;-70
2020/12/27 12:14:54;;;;;;;3.20;1.70;;;;;;;4.01;76.04;97509.06;8719349;33;20190;-71
2020/12/27 12:19:57;;;;;;;2.77;2.23;;;;;;;4.00;75.58;97490.69;8728599;33;20481;-71
2020/12/27 12:24:59;;;;;;;2.20;2.00;;;;;;;3.87;75.46;97475.06;8719065;33;20232;-71
2020/12/27 12:30:02;;;;;;;3.27;2.30;;;;;;;3.80;75.67;97476.56;8718326;33;20202;-71
2020/12/27 12:35:05;;;;;;;2.27;2.07;;;;;;;3.82;75.50;97447.38;8718110;33;20227;-72
2020/12/27 12:40:07;;;;;;;3.07;2.57;;;;;;;3.71;77.02;97459.69;8719064;33;20175;-72
2020/12/27 12:45:11;;;;;;;2.43;2.00;;;;;;;3.62;77.20;97449.94;8720820;33;20140;-72
2020/12/27 12:50:13;;;;;;;5.93;2.40;;;;;;;3.51;78.03;97424.44;8719453;33;20179;-73
2020/12/27 12:55:16;;;;;;;2.73;1.93;;;;;;;3.42;78.37;97434.94;8696477;33;20431;-73
2020/12/27 13:00:19;;;;;;;3.47;2.77;;;;;;;3.69;78.38;97381.59;8713982;33;20253;-72
2020/12/27 13:05:21;;;;;;;2.60;2.33;;;;;;;3.77;78.22;97381.75;8742028;33;20191;-71
2020/12/27 13:10:24;;;;;;;3.67;2.63;;;;;;;3.72;77.60;97363.66;8717460;33;20136;-70
2020/12/27 13:15:29;;;;;;;2.77;2.47;;;;;;;3.68;78.19;97359.63;8717888;33;20429;-69
2020/12/27 13:20:31;;;;;;;3.40;2.67;;;;;;;3.59;78.83;97334.03;8694262;33;20175;-71
2020/12/27 13:25:33;;;;;;;3.33;2.53;;;;;;;3.68;79.37;97327.13;8718301;33;20187;-71
2020/12/27 13:30:37;;;;;;;4.60;2.53;;;;;;;3.78;79.52;97338.53;8717717;33;20533;-71
2020/12/27 13:35:39;;;;;;;4.87;2.30;;;;;;;3.76;80.22;97312.28;8716771;33;20243;-71
2020/12/27 13:40:41;;;;;;;3.80;3.50;;;;;;;3.69;81.33;97297.94;8659065;33;20186;-71
2020/12/27 13:45:50;;;;;;;4.93;2.60;;;;;;;3.63;80.93;97308.22;8714193;33;20243;-71
2020/12/27 13:50:52;;;;;;;2.37;2.17;;;;;;;3.64;81.38;97286.13;8716086;33;20188;-71
2020/12/27 13:55:55;;;;;;;2.60;2.40;;;;;;;3.65;80.78;97288.63;8715923;33;20267;-70
2020/12/27 14:00:58;;;;;;;3.33;2.77;;;;;;;3.79;81.09;97266.28;8715748;33;20263;-71
2020/12/27 14:06:00;;;;;;;3.73;2.20;;;;;;;3.77;79.74;97260.31;8715625;33;20196;-70
2020/12/27 14:11:07;;;;;;;2.93;2.40;;;;;;;3.69;80.17;97260.97;8715986;33;20152;-71
2020/12/27 14:16:13;;;;;;;2.00;1.90;;;;;;;3.72;79.93;97217.63;8715666;33;20202;-71
2020/12/27 14:21:18;;;;;;;2.37;1.63;;;;;;;3.75;80.35;97227.91;8691760;33;20997;-71
2020/12/27 14:26:21;;;;;;;3.40;2.23;;;;;;;3.87;80.59;97210.16;8712169;33;20326;-70
2020/12/27 14:31:24;;;;;;;2.73;2.10;;;;;;;3.90;80.49;97220.44;8715454;33;20180;-71
2020/12/27 14:36:29;;;;;;;2.53;1.73;;;;;;;3.88;80.52;97211.81;8714142;33;20191;-71
2020/12/27 14:41:31;;;;;;;2.70;2.17;;;;;;;3.79;80.83;97208.22;8714267;33;20645;-71
2020/12/27 14:46:34;;;;;;;2.57;1.50;;;;;;;3.72;81.34;97197.34;8714375;33;20187;-71
2020/12/27 14:51:37;;;;;;;4.00;1.90;;;;;;;3.75;81.78;97188.31;8713186;33;20195;-71
2020/12/27 14:56:39;;;;;;;2.20;2.10;;;;;;;3.69;82.21;97183.59;8714038;33;20168;-70
2020/12/27 15:01:43;;;;;;;2.50;1.80;;;;;;;3.62;82.06;97191.25;8714879;33;20314;-72
2020/12/27 15:06:45;;;;;;;1.90;1.57;;;;;;;3.58;82.58;97165.25;8689563;33;20152;-72
2020/12/27 15:11:47;;;;;;;2.60;2.37;;;;;;;3.57;83.13;97159.13;8713249;33;20380;-71
2020/12/27 15:16:51;;;;;;;2.93;2.17;;;;;;;3.34;83.36;97155.88;8712058;33;21072;-72
2020/12/27 15:21:53;;;;;;;2.10;1.90;;;;;;;3.20;83.80;97146.56;8713529;33;20234;-72
2020/12/27 15:26:55;;;;;;;3.20;2.33;;;;;;;3.33;84.20;97138.41;8711837;33;20183;-73
2020/12/27 15:31:59;;;;;;;2.40;2.20;;;;;;;3.36;84.05;97126.75;8713331;33;20190;-72
2020/12/27 15:37:01;;;;;;;1.60;1.50;;;;;;;3.35;84.30;97123.28;8713954;33;20329;-71
2020/12/27 15:42:03;;;;;;;2.20;1.43;;;;;;;3.42;84.44;97116.47;8713319;33;20220;-73
2020/12/27 15:47:08;;;;;;;3.07;2.07;;;;;;;3.46;84.10;97107.31;8713413;33;20235;-72
2020/12/27 15:52:11;;;;;;;2.20;1.93;;;;;;;3.32;84.59;97094.53;8711651;33;20133;-73
2020/12/27 15:57:13;;;;;;;1.80;1.70;;;;;;;3.33;84.63;97097.03;8713118;33;20222;-73
2020/12/27 16:02:16;;;;;;;3.37;1.93;;;;;;;3.46;84.56;97074.81;8712083;33;20206;-72
2020/12/27 16:07:19;;;;;;;2.57;2.37;;;;;;;3.44;84.81;97076.75;8711776;33;20756;-72
2020/12/27 16:12:21;;;;;;;2.83;2.40;;;;;;;3.56;84.60;97070.34;8714832;33;20201;-72
2020/12/27 16:17:24;;;;;;;2.70;2.50;;;;;;;3.63;84.65;97054.81;8713271;33;20188;-72
2020/12/27 16:22:27;;;;;;;2.63;2.17;;;;;;;3.55;84.91;97058.13;8689167;33;20148;-72
2020/12/27 16:27:29;;;;;;;2.23;1.70;;;;;;;3.62;84.62;97042.56;8713883;33;20183;-73
2020/12/27 16:32:32;;;;;;;3.13;2.30;;;;;;;3.68;84.75;97039.38;8713871;33;20191;-72
2020/12/27 16:37:35;;;;;;;2.83;2.40;;;;;;;3.79;84.70;97023.38;8713083;33;21298;-72
2020/12/27 16:42:37;;;;;;;2.63;2.43;;;;;;;3.83;84.24;97023.91;8712817;33;20202;-71
2020/12/27 16:47:40;;;;;;;3.50;2.50;;;;;;;3.84;84.30;97009.72;8711031;33;20270;-72
2020/12/27 16:52:43;;;;;;;2.67;2.00;;;;;;;3.86;83.67;96998.06;8712069;33;20506;-71
2020/12/27 16:57:45;;;;;;;2.23;2.13;;;;;;;3.92;83.88;96994.88;8713383;33;20678;-71
2020/12/27 17:02:48;;;;;;;1.90;1.80;;;;;;;3.85;83.88;96999.03;8717339;33;20199;-71
2020/12/27 17:07:50;;;;;;;2.73;1.53;;;;;;;3.96;83.88;96995.41;8717005;33;20747;-71
2020/12/27 17:12:53;;;;;;;1.80;1.70;;;;;;;3.94;83.70;96978.84;8717003;33;20500;-71
2020/12/27 17:17:58;;;;;;;4.37;2.53;;;;;;;3.85;84.15;96963.91;8717038;33;20225;-71
2020/12/27 17:23:00;;;;;;;3.47;2.10;;;;;;;4.07;83.47;96960.06;8716751;33;20183;-71
2020/12/27 17:28:05;;;;;;;3.87;2.70;;;;;;;4.06;83.63;96967.16;8714945;33;20249;-71
2020/12/27 17:33:08;;;;;;;1.93;1.60;;;;;;;3.84;83.84;96954.28;8716930;33;21611;-71
2020/12/27 17:38:10;;;;;;;3.23;2.40;;;;;;;3.95;83.80;96936.47;8717138;33;20183;-71
2020/12/27 17:43:13;;;;;;;3.67;3.33;;;;;;;4.05;83.76;96946.16;8717279;33;20474;-71
2020/12/27 17:48:16;;;;;;;2.60;1.90;;;;;;;3.94;83.69;96933.97;8717164;33;20239;-73
2020/12/27 17:53:18;;;;;;;3.00;2.70;;;;;;;4.08;83.69;96925.56;8716836;33;20205;-71
2020/12/27 17:58:21;;;;;;;4.40;3.33;;;;;;;4.11;83.37;96921.78;8716537;33;20822;-74
2020/12/27 18:03:24;;;;;;;4.97;3.30;;;;;;;4.14;83.33;96919.72;8716912;33;20190;-73
2020/12/27 18:08:28;;;;;;;4.57;2.87;;;;;;;4.13;83.34;96920.66;8716365;33;20649;-73
2020/12/27 18:13:30;;;;;;;3.97;3.17;;;;;;;4.22;83.07;96918.94;8691867;33;20205;-73
2020/12/27 18:18:55;;;;;;;2.67;2.43;;;;;;;4.26;83.06;96904.47;8716748;33;21599;-73
2020/12/27 18:23:58;;;;;;;1.63;1.53;;;;;;;4.30;82.67;96900.53;8717192;33;20191;-74
2020/12/27 18:29:00;;;;;;;3.57;2.00;;;;;;;4.32;82.55;96888.03;8716336;33;20209;-73
2020/12/27 18:34:03;;;;;;;2.20;1.80;;;;;;;4.28;81.96;96897.25;8716978;33;20744;-73
2020/12/27 18:39:05;;;;;;;3.93;2.40;;;;;;;4.42;81.75;96893.25;8716263;33;20286;-73
2020/12/27 18:44:08;;;;;;;1.83;1.63;;;;;;;4.43;81.47;96882.53;8716653;33;21110;-73
2020/12/27 18:49:14;;;;;;;1.90;1.80;;;;;;;4.35;81.55;96890.38;8714956;33;20198;-72
2020/12/27 18:54:18;;;;;;;3.80;2.03;;;;;;;4.52;81.31;96858.81;8715381;33;20191;-73
2020/12/27 18:59:21;;;;;;;1.73;1.63;;;;;;;4.47;80.82;96846.06;8711640;33;21110;-72
2020/12/27 19:04:24;;;;;;;1.43;1.27;;;;;;;4.37;80.38;96838.22;8715655;33;20197;-72
2020/12/27 19:09:27;;;;;;;1.50;1.40;;;;;;;4.53;80.23;96832.25;8715136;33;20227;-72
2020/12/27 19:14:30;;;;;;;1.80;1.70;;;;;;;4.53;79.77;96823.50;8714357;33;21274;-72
2020/12/27 19:19:33;;;;;;;1.50;1.40;;;;;;;4.61;79.84;96837.63;8714611;33;20179;-73
2020/12/27 19:24:35;;;;;;;1.27;1.20;;;;;;;4.70;79.47;96829.75;8716645;33;20230;-72
2020/12/27 19:29:38;;;;;;;1.40;1.30;;;;;;;4.72;79.34;96803.97;8715391;33;20148;-72
2020/12/27 19:34:41;;;;;;;1.67;1.47;;;;;;;4.73;79.15;96814.41;8714664;33;20217;-72
2020/12/27 19:39:45;;;;;;;1.10;1.00;;;;;;;4.73;78.70;96806.47;8714231;33;20176;-72
2020/12/27 19:44:47;;;;;;;2.00;1.90;;;;;;;4.85;79.44;96802.63;8713231;33;20187;-72
2020/12/27 19:49:50;;;;;;;1.33;1.30;;;;;;;4.64;79.70;96802.94;8714996;33;20286;-71
2020/12/27 19:54:53;;;;;;;1.30;1.30;;;;;;;4.70;80.42;96803.31;8714253;33;20152;-73
2020/12/27 19:59:55;;;;;;;1.57;1.40;;;;;;;4.63;80.64;96798.59;8713251;33;20195;-72
2020/12/27 20:04:58;;;;;;;1.30;1.13;;;;;;;4.54;81.04;96810.13;8714174;33;20187;-70
2020/12/27 20:10:01;;;;;;;1.40;1.30;;;;;;;4.55;81.28;96798.56;8713744;33;20535;-73
2020/12/27 20:15:05;;;;;;;1.30;1.20;;;;;;;4.57;81.29;96803.69;8710820;33;20189;-73
2020/12/27 20:20:10;;;;;;;1.50;1.20;;;;;;;4.60;81.49;96798.91;8712481;33;20576;-73
2020/12/27 20:25:12;;;;;;;1.43;1.30;;;;;;;4.51;81.53;96796.38;8712851;33;20184;-72
2020/12/27 20:30:14;;;;;;;1.87;1.70;;;;;;;4.56;81.33;96786.19;8711805;33;20186;-72
2020/12/27 20:35:18;;;;;;;1.17;1.17;;;;;;;4.43;81.47;96813.00;8717055;33;21031;-74
2020/12/27 20:40:20;;;;;;;1.70;1.60;;;;;;;4.45;81.90;96803.94;8718154;33;20203;-73
2020/12/27 20:45:23;;;;;;;3.23;2.07;;;;;;;4.43;82.41;96813.81;8719292;33;20187;-73
2020/12/27 20:50:26;;;;;;;1.70;1.60;;;;;;;4.46;82.66;96816.16;8717920;33;20159;-71
2020/12/27 20:55:29;;;;;;;1.87;1.37;;;;;;;4.40;82.79;96808.84;8716882;33;20132;-73
2020/12/27 21:00:31;;;;;;;2.37;1.90;;;;;;;4.49;83.05;96803.63;8717896;33;20269;-73
2020/12/27 21:05:53;;;;;;;1.73;1.63;;;;;;;4.34;83.22;96805.97;8716865;33;20191;-73
2020/12/27 21:10:56;;;;;;;2.30;2.10;;;;;;;4.35;83.46;96811.09;8717250;33;21643;-73
2020/12/27 21:15:58;;;;;;;1.50;1.37;;;;;;;4.29;83.03;96806.41;8717259;33;20187;-73
2020/12/27 21:21:01;;;;;;;1.97;1.87;;;;;;;4.34;83.26;96800.69;8717663;33;20222;-76
2020/12/27 21:26:04;;;;;;;2.97;2.60;;;;;;;4.43;83.10;96786.56;8715938;33;21000;-74
2020/12/27 21:31:06;;;;;;;1.90;1.80;;;;;;;4.44;83.71;96793.50;8716531;33;20152;-74
2020/12/27 21:36:10;;;;;;;2.43;2.23;;;;;;;4.36;84.07;96789.00;8717690;33;20334;-72
2020/12/27 21:41:13;;;;;;;3.80;2.20;;;;;;;4.37;84.07;96781.88;8717078;33;20414;-74
2020/12/27 21:46:16;;;;;;;1.77;1.67;;;;;;;4.38;83.75;96775.59;8716107;33;21157;-74
2020/12/27 21:51:19;;;;;;;2.37;2.17;;;;;;;4.38;84.20;96779.06;8716999;33;20734;-74
2020/12/27 21:56:22;;;;;;;2.77;2.10;;;;;;;4.36;84.29;96781.06;8736319;33;20526;-74
2020/12/27 22:01:24;;;;;;;1.50;1.40;;;;;;;4.30;84.33;96775.53;8715653;33;20164;-73
2020/12/27 22:06:28;;;;;;;4.50;1.50;;;;;;;4.33;84.17;96777.88;8716690;33;20245;-73
2020/12/27 22:11:31;;;;;;;2.03;1.80;;;;;;;4.42;84.19;96761.94;8717441;33;21814;-74
2020/12/27 22:16:33;;;;;;;2.50;2.30;;;;;;;4.35;84.17;96784.66;8716961;33;20230;-73
2020/12/27 22:21:38;;;;;;;2.20;1.50;;;;;;;4.33;84.20;96776.06;8715248;33;20931;-73
2020/12/27 22:26:41;;;;;;;2.13;1.97;;;;;;;4.39;84.24;96775.47;8711883;33;20167;-74
2020/12/27 22:31:43;;;;;;;2.30;2.07;;;;;;;4.42;83.93;96777.81;8715214;33;20180;-74
2020/12/27 22:36:46;;;;;;;1.50;1.40;;;;;;;4.34;83.67;96774.28;8715079;33;20183;-73
2020/12/27 22:41:49;;;;;;;1.57;1.47;;;;;;;4.44;83.60;96772.34;8716610;33;20427;-73
2020/12/27 22:46:51;;;;;;;2.17;1.70;;;;;;;4.54;83.59;96777.56;8716472;33;20334;-73
2020/12/27 22:51:54;;;;;;;2.00;1.90;;;;;;;4.47;83.44;96785.28;8717013;33;20199;-73
2020/12/27 22:56:57;;;;;;;1.50;1.40;;;;;;;4.55;83.31;96788.00;8716178;33;20477;-71
2020/12/27 23:01:59;;;;;;;1.50;1.40;;;;;;;4.66;83.08;96765.75;8716231;33;20140;-72
2020/12/27 23:07:06;;;;;;;2.37;1.97;;;;;;;4.72;83.23;96773.09;8716449;33;21541;-73
2020/12/27 23:12:11;;;;;;;2.03;1.67;;;;;;;4.65;83.12;96767.56;8716138;33;20152;-72
2020/12/27 23:17:15;;;;;;;2.07;1.27;;;;;;;4.61;82.55;96763.59;8716285;33;20454;-73
2020/12/27 23:22:18;;;;;;;1.55;1.42;;;;;;;4.65;82.64;96749.06;8715958;33;20195;-72
2020/12/27 23:27:20;;;;;;;1.20;1.20;;;;;;;4.66;82.64;96757.81;8715978;33;20183;-72
2020/12/27 23:32:23;;;;;;;1.50;1.37;;;;;;;4.64;82.49;96768.56;8715905;33;20454;-72
2020/12/27 23:37:26;;;;;;;2.60;1.60;;;;;;;4.61;82.31;96765.41;8715413;33;20209;-73
2020/12/27 23:42:29;;;;;;;1.70;1.60;;;;;;;4.74;82.28;96773.75;8715550;33;20191;-73
2020/12/27 23:47:32;;;;;;;2.67;1.40;;;;;;;4.81;82.50;96763.41;8715460;33;20830;-73
2020/12/27 23:52:35;;;;;;;1.27;1.17;;;;;;;4.84;82.28;96771.84;8715150;33;20231;-71
2020/12/27 23:57:38;;;;;;;1.30;1.20;;;;;;;4.71;81.65;96763.47;8715074;33;20989;-73
